createdAt,value
2018-08-04T00:00:43.728Z,262.12
2018-08-04T00:03:15.216Z,269.85
2018-08-04T00:05:46.385Z,268.73
2018-08-04T00:08:17.695Z,267.15
2018-08-04T00:10:48.985Z,283.77
2018-08-04T00:13:20.018Z,278.15
2018-08-04T00:15:51.365Z,294.25
2018-08-04T00:18:22.631Z,270.55
2018-08-04T00:20:53.853Z,263.50
2018-08-04T00:23:26.583Z,262.68
2018-08-04T00:25:58.105Z,268.17
2018-08-04T00:28:29.338Z,265.65
2018-08-04T00:31:00.859Z,282.53
2018-08-04T00:33:32.061Z,282.65
2018-08-04T00:36:03.163Z,262.70
2018-08-04T00:38:34.315Z,265.20
2018-08-04T00:41:05.493Z,267.02
2018-08-04T00:43:36.670Z,270.02
2018-08-04T00:46:07.726Z,275.98
2018-08-04T00:48:38.968Z,266.12
2018-08-04T00:51:10.236Z,280.07
2018-08-04T00:53:41.281Z,266.88
2018-08-04T00:56:12.720Z,257.83
2018-08-04T00:58:43.973Z,276.25
2018-08-04T01:01:15.164Z,271.43
2018-08-04T01:03:46.431Z,275.57
2018-08-04T01:06:17.735Z,300.70
2018-08-04T01:08:49.031Z,280.60
2018-08-04T01:11:20.536Z,276.32
2018-08-04T01:13:52.091Z,291.35
2018-08-04T01:16:23.349Z,298.10
2018-08-04T01:18:54.884Z,277.95
2018-08-04T01:21:26.077Z,306.55
2018-08-04T01:23:57.308Z,275.70
2018-08-04T01:26:28.609Z,286.75
2018-08-04T01:28:59.902Z,295.88
2018-08-04T01:31:31.316Z,290.48
2018-08-04T01:34:02.613Z,269.13
2018-08-04T01:36:33.956Z,263.18
2018-08-04T01:39:12.137Z,280.10
2018-08-04T01:41:43.287Z,274.02
2018-08-04T01:44:14.475Z,273.05
2018-08-04T01:46:45.479Z,275.57
2018-08-04T01:49:16.664Z,259.57
2018-08-04T01:51:47.675Z,255.07
2018-08-04T01:54:18.911Z,251.75
2018-08-04T01:56:50.055Z,262.85
2018-08-04T01:59:21.295Z,257.27
2018-08-04T02:08:02.176Z,257.98
2018-08-04T02:10:33.508Z,253.80
2018-08-04T02:13:05.953Z,258.40
2018-08-04T02:15:37.931Z,250.55
2018-08-04T02:18:10.829Z,259.50
2018-08-04T02:20:42.020Z,255.40
2018-08-04T02:23:13.945Z,264.65
2018-08-04T02:25:45.028Z,271.07
2018-08-04T02:28:16.136Z,257.02
2018-08-04T02:30:47.292Z,244.32
2018-08-04T02:33:18.630Z,241.95
2018-08-04T02:35:49.663Z,252.80
2018-08-04T02:38:22.733Z,259.50
2018-08-04T02:40:55.856Z,239.72
2018-08-04T02:43:26.923Z,258.40
2018-08-04T02:45:58.660Z,273.93
2018-08-04T02:48:29.967Z,261.15
2018-08-04T02:51:01.443Z,260.82
2018-08-04T02:53:32.577Z,247.75
2018-08-04T02:56:03.759Z,246.47
2018-08-04T02:58:35.000Z,244.05
2018-08-04T03:01:06.104Z,245.97
2018-08-04T03:03:37.318Z,240.65
2018-08-04T03:06:08.504Z,243.25
2018-08-04T03:08:39.638Z,234.47
2018-08-04T03:11:10.743Z,241.45
2018-08-04T03:13:41.828Z,246.28
2018-08-04T03:16:12.931Z,239.30
2018-08-04T03:18:44.068Z,251.35
2018-08-04T03:21:15.108Z,254.35
2018-08-04T03:23:46.144Z,272.05
2018-08-04T03:26:17.399Z,255.52
2018-08-04T03:28:48.795Z,264.63
2018-08-04T03:31:19.964Z,253.02
2018-08-04T03:33:50.967Z,261.02
2018-08-04T03:36:22.105Z,256.55
2018-08-04T03:38:53.148Z,258.90
2018-08-04T03:41:24.530Z,258.25
2018-08-04T03:43:55.623Z,255.32
2018-08-04T03:46:26.791Z,245.33
2018-08-04T03:48:58.003Z,240.55
2018-08-04T03:51:29.131Z,239.40
2018-08-04T03:54:00.228Z,245.27
2018-08-04T03:56:32.442Z,263.00
2018-08-04T03:59:03.533Z,250.60
2018-08-04T04:01:34.668Z,265.35
2018-08-04T04:04:05.644Z,250.40
2018-08-04T04:06:37.046Z,253.22
2018-08-04T04:09:10.427Z,272.60
2018-08-04T04:11:41.733Z,259.32
2018-08-04T04:14:13.542Z,262.90
2018-08-04T04:16:44.630Z,273.87
2018-08-04T04:19:15.989Z,264.02
2018-08-04T04:21:47.148Z,253.60
2018-08-04T04:24:18.288Z,256.77
2018-08-04T04:26:49.431Z,273.52
2018-08-04T04:29:20.683Z,250.13
2018-08-04T04:31:51.863Z,260.50
2018-08-04T04:34:23.088Z,252.40
2018-08-04T04:36:54.269Z,260.45
2018-08-04T04:39:25.575Z,252.68
2018-08-04T04:41:56.809Z,259.70
2018-08-04T04:44:27.904Z,263.40
2018-08-04T04:46:59.111Z,254.38
2018-08-04T04:49:30.355Z,251.10
2018-08-04T04:52:02.717Z,243.90
2018-08-04T04:54:34.485Z,255.92
2018-08-04T04:57:06.482Z,238.55
2018-08-04T04:59:37.711Z,248.40
2018-08-04T05:02:08.890Z,252.25
2018-08-04T05:04:39.980Z,242.62
2018-08-04T05:07:11.139Z,242.37
2018-08-04T05:09:42.204Z,254.20
2018-08-04T05:12:13.550Z,260.38
2018-08-04T05:14:44.635Z,268.67
2018-08-04T05:17:21.403Z,282.95
2018-08-04T05:19:53.593Z,278.80
2018-08-04T05:22:24.912Z,257.98
2018-08-04T05:24:56.004Z,247.25
2018-08-04T05:27:27.284Z,259.05
2018-08-04T05:29:58.860Z,270.63
2018-08-04T05:32:29.981Z,260.27
2018-08-04T05:35:01.367Z,255.50
2018-08-04T05:37:32.671Z,258.05
2018-08-04T05:40:04.336Z,264.60
2018-08-04T05:42:35.507Z,257.30
2018-08-04T05:45:07.601Z,264.95
2018-08-04T05:47:43.984Z,252.28
2018-08-04T05:50:18.996Z,248.82
2018-08-04T05:52:52.271Z,245.30
2018-08-04T05:55:23.984Z,256.85
2018-08-04T05:57:55.305Z,250.50
2018-08-04T06:00:26.510Z,262.88
2018-08-04T06:02:57.895Z,268.73
2018-08-04T06:05:28.934Z,262.80
2018-08-04T06:08:00.080Z,248.45
2018-08-04T06:13:37.449Z,246.43
2018-08-04T06:16:11.500Z,242.90
2018-08-04T06:18:47.252Z,253.52
2018-08-04T06:21:24.764Z,249.25
2018-08-04T06:23:56.201Z,240.65
2018-08-04T06:26:27.420Z,253.37
2018-08-04T06:28:58.570Z,246.55
2018-08-04T06:31:30.010Z,247.05
2018-08-04T06:34:01.005Z,239.53
2018-08-04T06:36:32.320Z,241.00
2018-08-04T06:39:04.494Z,239.53
2018-08-04T06:41:36.648Z,246.20
2018-08-04T06:44:07.776Z,257.20
2018-08-04T06:46:39.179Z,242.45
2018-08-04T06:49:10.545Z,244.57
2018-08-04T06:51:41.936Z,255.18
2018-08-04T06:54:13.110Z,254.45
2018-08-04T06:56:44.430Z,254.85
2018-08-04T06:59:15.534Z,255.27
2018-08-04T07:01:47.057Z,255.43
2018-08-04T07:04:18.158Z,252.57
2018-08-04T07:06:49.407Z,262.88
2018-08-04T07:09:20.517Z,261.95
2018-08-04T07:11:51.941Z,287.72
2018-08-04T07:14:23.000Z,273.68
2018-08-04T07:16:54.072Z,264.45
2018-08-04T07:19:25.152Z,266.52
2018-08-04T07:21:56.283Z,279.65
2018-08-04T07:24:27.277Z,270.63
2018-08-04T07:26:58.723Z,269.80
2018-08-04T07:29:29.793Z,274.40
2018-08-04T07:32:01.503Z,266.30
2018-08-04T07:34:32.603Z,279.75
2018-08-04T07:37:04.183Z,281.00
2018-08-04T07:39:35.296Z,271.77
2018-08-04T07:42:06.600Z,270.23
2018-08-04T07:44:37.647Z,297.45
2018-08-04T07:47:09.160Z,290.57
2018-08-04T07:49:40.064Z,264.27
2018-08-04T07:52:11.665Z,256.38
2018-08-04T07:54:43.132Z,293.60
2018-08-04T07:57:14.333Z,263.57
2018-08-04T07:59:45.496Z,282.12
2018-08-04T08:02:16.599Z,260.23
2018-08-04T08:04:47.605Z,259.75
2018-08-04T08:07:21.879Z,257.85
2018-08-04T08:09:53.644Z,271.57
2018-08-04T08:12:25.541Z,274.98
2018-08-04T08:14:56.644Z,281.87
2018-08-04T08:17:27.828Z,264.15
2018-08-04T08:19:59.000Z,282.37
2018-08-04T08:22:38.964Z,302.48
2018-08-04T08:25:10.665Z,265.30
2018-08-04T08:27:41.788Z,280.50
2018-08-04T08:30:15.765Z,266.33
2018-08-04T08:32:46.865Z,259.25
2018-08-04T08:35:18.035Z,274.37
2018-08-04T08:37:49.330Z,277.22
2018-08-04T08:40:24.734Z,291.75
2018-08-04T08:42:55.905Z,262.05
2018-08-04T08:45:28.512Z,263.90
2018-08-04T08:47:59.703Z,259.10
2018-08-04T08:50:31.344Z,286.92
2018-08-04T08:53:03.593Z,280.40
2018-08-04T08:55:35.130Z,266.38
2018-08-04T08:58:08.619Z,275.95
2018-08-04T09:00:40.172Z,283.17
2018-08-04T09:03:12.934Z,295.15
2018-08-04T09:05:44.024Z,314.35
2018-08-04T09:08:15.526Z,281.47
2018-08-04T09:10:46.743Z,294.32
2018-08-04T09:13:18.037Z,290.35
2018-08-04T09:15:49.640Z,289.35
2018-08-04T09:18:20.872Z,269.82
2018-08-04T09:20:51.899Z,281.17
2018-08-04T09:23:22.979Z,290.27
2018-08-04T09:25:53.980Z,306.02
2018-08-04T09:28:25.218Z,335.65
2018-08-04T09:30:56.447Z,313.32
2018-08-04T09:33:27.570Z,277.70
2018-08-04T09:35:59.252Z,305.15
2018-08-04T09:38:30.339Z,319.10
2018-08-04T09:41:01.997Z,313.18
2018-08-04T09:43:33.205Z,328.55
2018-08-04T09:46:04.407Z,302.02
2018-08-04T09:48:35.416Z,312.63
2018-08-04T09:51:07.132Z,317.52
2018-08-04T09:53:38.290Z,336.43
2018-08-04T09:56:10.770Z,314.52
2018-08-04T09:58:41.982Z,300.80
2018-08-04T10:01:18.237Z,328.67
2018-08-04T10:03:49.446Z,319.87
2018-08-04T10:06:20.512Z,328.02
2018-08-04T10:08:51.592Z,340.87
2018-08-04T10:11:22.832Z,341.30
2018-08-04T10:13:53.964Z,374.23
2018-08-04T10:16:25.183Z,378.55
2018-08-04T10:18:56.624Z,309.65
2018-08-04T10:21:27.784Z,308.02
2018-08-04T10:24:00.131Z,291.45
2018-08-04T10:26:33.421Z,292.35
2018-08-04T10:29:04.699Z,330.18
2018-08-04T10:31:35.934Z,343.17
2018-08-04T10:34:07.385Z,324.05
2018-08-04T10:36:38.505Z,301.90
2018-08-04T10:39:11.046Z,291.38
2018-08-04T10:41:42.097Z,302.82
2018-08-04T10:44:13.085Z,288.05
2018-08-04T10:46:44.516Z,314.50
2018-08-04T10:49:15.688Z,287.45
2018-08-04T10:51:46.897Z,310.15
2018-08-04T10:54:19.371Z,305.00
2018-08-04T10:56:50.489Z,287.00
2018-08-04T10:59:22.244Z,328.25
2018-08-04T11:01:53.391Z,305.30
2018-08-04T11:04:24.628Z,294.50
2018-08-04T11:06:55.829Z,286.50
2018-08-04T11:09:27.362Z,291.55
2018-08-04T11:11:58.508Z,277.70
2018-08-04T11:14:29.894Z,304.90
2018-08-04T11:17:01.141Z,289.48
2018-08-04T11:19:32.502Z,294.73
2018-08-04T11:22:04.893Z,296.40
2018-08-04T11:24:36.003Z,316.12
2018-08-04T11:27:07.205Z,326.18
2018-08-04T11:29:38.315Z,295.82
2018-08-04T11:32:09.859Z,307.98
2018-08-04T11:34:40.934Z,324.90
2018-08-04T11:37:12.724Z,310.73
2018-08-04T11:39:43.917Z,312.08
2018-08-04T11:42:15.429Z,302.02
2018-08-04T11:44:46.777Z,309.37
2018-08-04T11:47:18.122Z,288.68
2018-08-04T11:49:49.112Z,330.57
2018-08-04T11:52:20.295Z,294.05
2018-08-04T11:54:51.532Z,349.12
2018-08-04T11:57:23.215Z,330.55
2018-08-04T11:59:54.444Z,311.77
2018-08-04T12:02:25.685Z,287.12
2018-08-04T12:04:56.965Z,279.93
2018-08-04T12:07:28.219Z,303.88
2018-08-04T12:09:59.447Z,300.52
2018-08-04T12:12:30.701Z,298.30
2018-08-04T12:15:02.435Z,300.65
2018-08-04T12:17:33.466Z,306.13
2018-08-04T12:20:04.933Z,279.63
2018-08-04T12:22:36.844Z,276.45
2018-08-04T12:25:09.492Z,284.07
2018-08-04T12:27:41.370Z,277.60
2018-08-04T12:30:14.401Z,259.07
2018-08-04T12:32:45.553Z,263.05
2018-08-04T12:35:16.649Z,287.77
2018-08-04T12:37:48.047Z,290.18
2018-08-04T12:40:19.555Z,292.02
2018-08-04T12:42:50.700Z,287.65
2018-08-04T12:45:22.050Z,331.82
2018-08-04T12:47:53.308Z,301.65
2018-08-04T12:50:24.387Z,299.95
2018-08-04T12:52:55.688Z,311.20
2018-08-04T12:55:28.351Z,305.60
2018-08-04T12:58:00.392Z,324.12
2018-08-04T13:00:32.181Z,316.52
2018-08-04T13:03:15.081Z,278.15
2018-08-04T13:05:56.267Z,291.27
2018-08-04T13:08:29.004Z,276.20
2018-08-04T13:11:00.353Z,267.82
2018-08-04T13:13:31.534Z,304.85
2018-08-04T13:16:02.874Z,288.42
2018-08-04T13:18:34.055Z,291.23
2018-08-04T13:21:05.281Z,295.20
2018-08-04T13:23:36.524Z,282.98
2018-08-04T13:26:07.768Z,294.60
2018-08-04T13:28:38.833Z,301.90
2018-08-04T13:31:10.418Z,305.60
2018-08-04T13:33:41.544Z,298.30
2018-08-04T13:36:14.961Z,339.15
2018-08-04T13:38:46.267Z,315.27
2018-08-04T13:41:18.183Z,285.75
2018-08-04T13:43:49.309Z,282.45
2018-08-04T13:46:21.168Z,290.73
2018-08-04T13:48:52.214Z,321.37
2018-08-04T13:51:23.544Z,306.95
2018-08-04T13:53:55.006Z,282.35
2018-08-04T13:56:26.123Z,312.70
2018-08-04T13:58:57.430Z,301.75
2018-08-04T14:01:28.544Z,285.93
2018-08-04T14:03:59.816Z,304.70
2018-08-04T14:06:31.295Z,303.80
2018-08-04T14:09:02.484Z,302.65
2018-08-04T14:11:33.524Z,283.43
2018-08-04T14:14:04.729Z,319.82
2018-08-04T14:16:35.789Z,310.02
2018-08-04T14:19:07.209Z,313.95
2018-08-04T14:21:38.269Z,320.20
2018-08-04T14:24:09.402Z,309.25
2018-08-04T14:26:40.531Z,347.65
2018-08-04T14:29:11.633Z,332.20
2018-08-04T14:31:42.713Z,331.65
2018-08-04T14:34:13.867Z,323.32
2018-08-04T14:36:44.934Z,323.48
2018-08-04T14:39:16.028Z,334.65
2018-08-04T14:41:47.113Z,300.30
2018-08-04T14:44:18.326Z,321.48
2018-08-04T14:46:49.505Z,314.48
2018-08-04T14:49:24.884Z,321.75
2018-08-04T14:51:57.031Z,330.87
2018-08-04T14:54:28.500Z,313.80
2018-08-04T14:56:59.605Z,318.40
2018-08-04T14:59:31.475Z,340.45
2018-08-04T15:02:02.600Z,332.85
2018-08-04T15:04:33.844Z,359.48
2018-08-04T15:07:04.983Z,325.38
2018-08-04T15:09:36.344Z,283.52
2018-08-04T15:12:07.537Z,325.35
2018-08-04T15:14:38.746Z,309.85
2018-08-04T15:17:10.332Z,304.13
2018-08-04T15:19:41.521Z,310.27
2018-08-04T15:22:12.459Z,311.20
2018-08-04T15:24:43.497Z,306.68
2018-08-04T15:27:15.856Z,317.23
2018-08-04T15:29:46.888Z,312.38
2018-08-04T15:32:18.111Z,330.27
2018-08-04T15:34:49.462Z,325.27
2018-08-04T15:37:20.620Z,320.02
2018-08-04T15:39:52.198Z,327.00
2018-08-04T15:42:23.244Z,367.23
2018-08-04T15:44:54.496Z,316.55
2018-08-04T15:47:25.457Z,318.67
2018-08-04T15:49:56.953Z,309.20
2018-08-04T15:52:28.132Z,341.98
2018-08-04T15:54:59.217Z,374.52
2018-08-04T15:57:30.316Z,340.50
2018-08-04T16:00:01.345Z,318.15
2018-08-04T16:02:32.464Z,337.12
2018-08-04T16:05:06.182Z,336.52
2018-08-04T16:07:37.143Z,323.75
2018-08-04T16:10:10.107Z,313.68
2018-08-04T16:12:41.225Z,299.62
2018-08-04T16:15:12.701Z,321.85
2018-08-04T16:17:44.496Z,370.05
2018-08-04T16:20:16.901Z,336.82
2018-08-04T16:22:48.041Z,339.00
2018-08-04T16:25:19.147Z,314.88
2018-08-04T16:27:51.200Z,337.63
2018-08-04T16:36:29.511Z,324.00
2018-08-04T16:39:00.370Z,351.35
2018-08-04T16:41:31.391Z,320.67
2018-08-04T16:44:04.199Z,335.98
2018-08-04T16:46:35.228Z,322.67
2018-08-04T16:49:06.140Z,308.20
2018-08-04T16:51:37.009Z,300.85
2018-08-04T16:54:08.566Z,330.70
2018-08-04T16:56:39.706Z,343.07
2018-08-04T16:59:10.778Z,313.10
2018-08-04T17:01:41.793Z,332.15
2018-08-04T17:04:13.899Z,313.95
2018-08-04T17:06:44.901Z,340.52
2018-08-04T17:09:15.878Z,346.98
2018-08-04T17:11:47.351Z,351.20
2018-08-04T17:14:18.355Z,339.55
2018-08-04T17:16:49.692Z,347.33
2018-08-04T17:19:20.838Z,318.93
2018-08-04T17:21:52.405Z,305.32
2018-08-04T17:24:23.409Z,326.12
2018-08-04T17:26:54.569Z,320.97
2018-08-04T17:29:25.999Z,318.10
2018-08-04T17:31:57.393Z,327.27
2018-08-04T17:34:29.061Z,324.42
2018-08-04T17:37:01.786Z,321.00
2018-08-04T17:39:34.264Z,333.50
2018-08-04T17:42:07.316Z,352.25
2018-08-04T17:44:39.917Z,370.45
2018-08-04T17:47:11.738Z,331.47
2018-08-04T17:49:42.758Z,339.60
2018-08-04T17:52:13.869Z,360.27
2018-08-04T17:54:44.954Z,353.15
2018-08-04T17:57:16.726Z,326.12
2018-08-04T17:59:47.884Z,340.80
2018-08-04T18:02:20.006Z,337.05
2018-08-04T18:04:51.576Z,356.93
2018-08-04T18:07:22.741Z,333.15
2018-08-04T18:09:54.022Z,347.40
2018-08-04T18:12:25.068Z,317.60
2018-08-04T18:14:56.205Z,328.88
2018-08-04T18:17:27.399Z,299.20
2018-08-04T18:19:58.565Z,322.35
2018-08-04T18:22:29.959Z,358.80
2018-08-04T18:25:01.256Z,320.90
2018-08-04T18:27:32.642Z,342.87
2018-08-04T18:30:05.551Z,345.00
2018-08-04T18:32:36.668Z,339.75
2018-08-04T18:35:07.723Z,320.88
2018-08-04T18:37:38.900Z,321.27
2018-08-04T18:40:10.077Z,331.27
2018-08-04T18:42:41.159Z,305.83
2018-08-04T18:45:12.921Z,320.40
2018-08-04T18:47:44.977Z,331.10
2018-08-04T18:50:19.269Z,341.48
2018-08-04T18:52:50.945Z,316.02
2018-08-04T18:55:22.068Z,336.57
2018-08-04T18:57:53.167Z,330.23
2018-08-04T19:00:24.236Z,330.40
2018-08-04T19:02:55.423Z,308.82
2018-08-04T19:05:26.624Z,336.00
2018-08-04T19:07:58.433Z,330.57
2018-08-04T19:10:33.170Z,327.48
2018-08-04T19:13:04.893Z,309.20
2018-08-04T19:15:36.458Z,326.52
2018-08-04T19:18:09.132Z,317.00
2018-08-04T19:20:40.342Z,307.27
2018-08-04T19:23:14.351Z,306.73
2018-08-04T19:25:45.312Z,291.00
2018-08-04T19:28:16.325Z,299.02
2018-08-04T19:30:47.988Z,303.32
2018-08-04T19:33:19.174Z,286.10
2018-08-04T19:35:50.113Z,307.10
2018-08-04T19:38:21.135Z,308.77
2018-08-04T19:40:52.731Z,278.52
2018-08-04T19:43:23.845Z,285.15
2018-08-04T19:45:54.860Z,261.57
2018-08-04T19:48:26.889Z,299.45
2018-08-04T19:50:58.308Z,285.75
2018-08-04T19:53:29.684Z,275.75
2018-08-04T19:56:00.711Z,289.25
2018-08-04T19:58:32.001Z,282.02
2018-08-04T20:01:03.575Z,293.07
2018-08-04T20:03:34.589Z,262.95
2018-08-04T20:06:05.668Z,285.02
2018-08-04T20:08:37.186Z,281.65
2018-08-04T20:11:08.855Z,292.43
2018-08-04T20:13:40.113Z,292.02
2018-08-04T20:16:11.063Z,286.40
2018-08-04T20:18:42.599Z,300.22
2018-08-04T20:21:13.624Z,332.23
2018-08-04T20:23:44.956Z,303.40
2018-08-04T20:26:15.929Z,282.92
2018-08-04T20:28:48.244Z,299.58
2018-08-04T20:31:19.339Z,286.52
2018-08-04T20:33:50.521Z,305.23
2018-08-04T20:36:21.768Z,286.80
2018-08-04T20:38:52.800Z,315.02
2018-08-04T20:41:23.742Z,308.95
2018-08-04T20:43:54.844Z,280.70
2018-08-04T20:46:26.881Z,308.75
2018-08-04T20:48:58.008Z,309.80
2018-08-04T20:51:29.164Z,272.37
2018-08-04T20:54:00.234Z,280.75
2018-08-04T20:56:31.477Z,307.65
2018-08-04T20:59:03.075Z,285.50
2018-08-04T21:01:50.993Z,275.90
2018-08-04T21:04:22.429Z,280.00
2018-08-04T21:06:53.644Z,270.85
2018-08-04T21:09:24.798Z,275.95
2018-08-04T21:11:56.841Z,284.87
2018-08-04T21:14:28.598Z,278.02
2018-08-04T21:17:00.396Z,268.42
2018-08-04T21:19:31.409Z,272.35
2018-08-04T21:22:03.801Z,275.70
2018-08-04T21:24:34.864Z,288.55
2018-08-04T21:27:05.792Z,279.95
2018-08-04T21:29:37.381Z,285.52
2018-08-04T21:32:08.497Z,295.95
2018-08-04T21:34:39.664Z,298.85
2018-08-04T21:37:10.693Z,273.10
2018-08-04T21:39:41.717Z,280.37
2018-08-04T21:42:13.068Z,270.60
2018-08-04T21:44:44.397Z,271.05
2018-08-04T21:47:15.385Z,282.37
2018-08-04T21:49:46.761Z,294.95
2018-08-04T21:52:17.822Z,266.02
2018-08-04T21:54:49.883Z,252.18
2018-08-04T21:57:22.785Z,264.85
2018-08-04T21:59:53.780Z,272.07
2018-08-04T22:02:25.364Z,269.98
2018-08-04T22:05:08.401Z,257.00
2018-08-04T22:07:51.227Z,269.02
2018-08-04T22:10:22.523Z,249.67
2018-08-04T22:12:53.653Z,251.22
2018-08-04T22:15:25.148Z,277.02
2018-08-04T22:17:56.320Z,433.60
2018-08-04T22:20:30.271Z,298.85
2018-08-04T22:23:01.718Z,276.92
2018-08-04T22:25:33.346Z,267.45
2018-08-04T22:28:06.064Z,256.60
2018-08-04T22:30:38.730Z,257.37
2018-08-04T22:33:11.700Z,250.70
2018-08-04T22:35:42.888Z,253.65
2018-08-04T22:38:24.292Z,259.75
2018-08-04T22:41:13.084Z,253.98
2018-08-04T22:43:54.864Z,245.22
2018-08-04T22:46:26.047Z,250.57
2018-08-04T22:48:57.213Z,252.32
2018-08-04T22:51:29.551Z,301.98
2018-08-04T22:54:00.796Z,292.55
2018-08-04T22:56:32.039Z,261.18
2018-08-04T22:59:04.957Z,257.35
2018-08-04T23:01:36.040Z,260.23
2018-08-04T23:04:07.019Z,248.25
2018-08-04T23:06:38.083Z,257.60
2018-08-04T23:09:12.295Z,245.75
2018-08-04T23:11:43.313Z,260.50
2018-08-04T23:14:14.492Z,250.60
2018-08-04T23:16:45.484Z,258.07
2018-08-04T23:19:16.500Z,252.00
2018-08-04T23:21:49.105Z,247.00
2018-08-04T23:24:20.104Z,257.50
2018-08-04T23:26:51.284Z,259.48
2018-08-04T23:29:22.331Z,234.80
2018-08-04T23:31:53.732Z,244.57
2018-08-04T23:34:24.862Z,242.05
2018-08-04T23:36:56.104Z,236.22
2018-08-04T23:39:27.218Z,255.80
2018-08-04T23:41:58.520Z,244.93
2018-08-04T23:44:29.668Z,252.10
2018-08-04T23:47:00.930Z,251.18
2018-08-04T23:49:31.979Z,239.97
2018-08-04T23:52:03.781Z,241.40
2018-08-04T23:54:34.705Z,256.00
2018-08-04T23:57:05.814Z,245.05
2018-08-04T23:59:36.830Z,255.15
